x

New Dungeness - 17 Nm Ne Of Port Angeles, Wa (46088) Wave Buoy

5:20pm - Tue 27th Jan 2015 All times are PST. -8 hours from GMT.

  • Sig Wave height 2.6ft
  • Swell Direction
  • Peak Period 5s
  • Average Period 4s
  • Wind
    20mph, 25mph gusts
  • Sea Temp 48°f
  • Air Temp 48°f
  • Sea Pressure 1020.4mb
  • New Dungeness - 17 Nm Ne Of Port Angeles, Wa
  • New Dungeness - 17 Nm Ne Of Port Angeles, Wa

More Historic Weather Station data

Upgrade to MSW Pro to gain access to the past 30 days of data for over 8000 Wavebouys and Weather Stations around the globe.

Join Pro

Comparision Forecast

View Surf forecast
   
Tue 01/27 5:20pm 2.5ft 5s 4s 20 25 mph 1020.4mb 48f 48f
4:50pm 2.5ft 5s 4s 20 25 mph 1020.1mb 48f 48f
4:20pm 2.5ft 5s 4s 20 22 mph 1020mb 48f 49f
3:50pm 2ft 5s 4s 18 20 mph 1019.7mb 48f 49f
3:20pm 1.6ft 5s 4s 16 20 mph 1019.6mb 48f 50f
2:50pm 1.3ft 5s 4s 16 20 mph 1019.3mb 48f 50f
2:20pm 1ft 4s 4s 16 18 mph 1019mb 48f 49f
1:50pm 1ft 3s 3s 16 20 mph 1018.9mb 48f 49f
1:20pm 0.7ft  -  3s 16 18 mph 1018.7mb 48f 49f
12:50pm 0.3ft  -  3s 13 18 mph 1018.6mb 48f 48f
12:20pm 0.3ft  -  4s 9 11 mph 1018.6mb 48f 48f
11:50am 0.3ft  -  4s 7 9 mph 1018.5mb 48f 49f
11:20am 0.3ft  -  5s 7
mph
1018.5mb 48f 48f
10:50am 0.3ft  -  5s 7
mph
1018.4mb 48f 48f
10:20am 0.3ft  -  4s 4
mph
1017.8mb 48f 49f
9:50am 0.3ft  -  4s 4
mph
1017.7mb 48f 49f
9:20am 0.3ft  -  5s 4 7 mph 1017.2mb 48f 48f
8:50am 0.3ft  -  4s 4 7 mph 1017.1mb 48f 48f
8:20am 0.3ft  -  4s 2 4 mph 1016.8mb 48f 48f
7:50am 0.3ft  -  4s 4 7 mph 1016.3mb 48f 48f
6:50am 0.3ft  -  5s 7
mph
1015.8mb 48f 48f
6:20am 0.3ft  -  5s 4 7 mph 1015.7mb 48f 48f
5:50am 0.3ft  -  4s 4
mph
1015.5mb 48f 47f
5:20am 0.3ft  -  4s 2
mph
1015.2mb 48f 47f
4:50am 0.7ft  -  4s 2
mph
1015.2mb 48f 47f
4:20am 0.3ft  -  4s 2
mph
1015.3mb 47f 47f
3:50am 0.3ft  -  4s 2 4 mph 1015.2mb 47f 47f
3:20am 0.3ft  -  4s 2 4 mph 1015.1mb 47f 47f
2:50am 0.3ft  -  4s 2
mph
1015mb 47f 47f
2:20am 0.3ft  -  3s 2 4 mph 1015.2mb 48f 46f
1:50am 0.3ft  -  3s 4 7 mph 1015mb 48f 46f
1:20am 0.7ft  -  3s 7
mph
1014.9mb 48f 46f
12:50am 0.7ft  -  3s 7
mph
1014.6mb 48f 46f
12:20am 0.3ft  -  3s 9
mph
1014.4mb 48f 45f
Mon 01/26 11:50pm 0.3ft  -  3s 7
mph
1014.5mb 48f 47f
11:20pm 0.3ft  -  3s 9 11 mph 1014.5mb 48f 47f
10:50pm 0.3ft  -  3s 7
mph
1014.6mb 48f 47f
10:20pm 0.3ft  -  4s 7 9 mph 1014.5mb 48f 46f
9:50pm 0.3ft  -  3s 9
mph
1014.3mb 48f 47f
9:20pm 0.3ft  -  3s 7
mph
1014.1mb 48f 47f
8:50pm 0.3ft  -  3s 7
mph
1014.1mb 48f 47f
8:20pm 0.7ft  -  3s 4
mph
1013.8mb 48f 48f
7:50pm 0.7ft  -  3s 2 4 mph 1013.6mb 48f 47f
7:20pm 1ft 3s 3s 4
mph
1013.6mb 48f 47f
6:50pm 1ft 2s 3s 4 7 mph 1013.5mb 48f 47f
6:20pm 1ft 2s 3s 4 7 mph 1013.6mb 48f 47f
5:50pm 0.7ft  -  3s 9 13 mph 1013.3mb 48f 47f
5:20pm 0.7ft  -  3s 11 13 mph 1013mb 48f 47f
4:50pm 0.7ft  -  4s 13 16 mph 1012.8mb 48f 47f
4:20pm 0.7ft  -  5s 11 13 mph 1012.7mb 48f 47f
3:50pm 0.3ft  -  3s 7 9 mph 1012.5mb 48f 47f
3:20pm 0.7ft  -  4s 7 9 mph 1012.6mb 48f 47f
2:50pm 0.7ft  -  4s 7 9 mph 1012.2mb 48f 47f
2:20pm 0.7ft  -  3s 9 11 mph 1011.9mb 48f 47f
1:50pm 0.7ft  -  3s 11 13 mph 1012.2mb 48f 47f
1:20pm 0.7ft  -  3s 11 16 mph 1012.5mb 48f 47f
12:50pm 1ft 3s 3s 2
mph
1013.1mb 48f 47f
12:20pm 1ft 3s 3s 9 11 mph 1012.5mb 48f 46f
11:50am 1ft 3s 3s 9 11 mph 1012.8mb 48f 47f
11:20am 1ft 3s 3s 11 13 mph 1013.2mb 48f 47f
10:50am 1ft 3s 3s 9 11 mph 1013.4mb 48f 48f
10:20am 1ft 3s 3s 11 13 mph 1012.9mb 48f 47f
9:50am 1ft 3s 3s 11 13 mph 1013.2mb 48f 47f
9:20am 0.7ft  -  3s 11 13 mph 1013.3mb 48f 47f
8:50am 0.7ft  -  3s 13 18 mph 1012.7mb 48f 47f
8:20am 0.3ft  -  3s 11 13 mph 1012.8mb 48f 47f
7:50am 0.3ft  -  4s 11 13 mph 1013.2mb 48f 46f
7:20am 0.3ft  -  5s 11
mph
1013.3mb 48f 46f
6:50am 0.3ft  -  6s 9 11 mph 1013mb 48f 46f
6:20am 0.3ft  -  6s 4 7 mph 1013.4mb 48f 47f
5:50am 0.3ft  -  6s 4
mph
1013.6mb 47f 47f
5:20am 0.3ft  -  6s 4
mph
1013.7mb 48f 47f
4:50am 0.3ft  -  6s 2
mph
1013.2mb 48f 46f
4:20am 0.3ft  -  6s 2
mph
1013.2mb 48f 45f
3:50am 0.3ft  -  6s  -  2 mph 1013.2mb 48f 46f
3:20am 0.7ft  -  7s 2 4 mph 1013.6mb 48f 47f
2:50am 0.7ft  -  8s 2
mph
1014mb 48f 47f
2:20am 0.7ft  -  8s 2
mph
1014.2mb 48f 47f
1:50am 0.7ft  -  7s 2
mph
1014.5mb 48f 47f
1:20am 0.7ft  -  7s 4
mph
1014.6mb 48f 48f
12:50am 0.7ft  -  7s 2
mph
1014.9mb 48f 47f
12:20am 0.3ft  -  6s 2
mph
1015.3mb 48f 47f
Sun 01/25 11:50pm 0.7ft  -  5s 4
mph
1015.4mb 48f 47f
11:20pm 0.3ft  -  6s 2 4 mph 1016mb 48f 47f
10:50pm 0.7ft  -  7s 2 4 mph 1016.1mb 48f 48f
10:20pm 0.7ft  -  8s 4
mph
1016.5mb 48f 48f
9:50pm 0.7ft  -  7s 2 4 mph 1016.7mb 48f 48f
9:20pm 0.7ft  -  6s 4
mph
1017mb 48f 49f
8:50pm 0.7ft  -  6s 2
mph
1017.1mb 48f 49f
8:20pm 0.7ft  -  6s 2 4 mph 1017.5mb 48f 50f
7:50pm 0.7ft  -  6s 2 4 mph 1017.7mb 48f 50f
7:20pm 1ft 8s 6s 4
mph
1017.9mb 48f 49f
6:50pm 1ft 8s 6s 2
mph
1018.1mb 48f 49f
6:20pm 1ft 7s 7s 4
mph
1018.5mb 48f 49f
5:50pm 1ft 8s 7s 4
mph
1018.5mb 48f 49f
5:20pm 0.7ft  -  6s 4
mph
1018.7mb 48f 49f
4:50pm 1ft 8s 7s  -  2 mph 1018.7mb 48f 49f
4:20pm 1ft 9s 8s  -  2 mph 1019mb 48f 49f
3:50pm 1ft 10s 8s 2
mph
1019.3mb 48f 49f
3:20pm 1ft 11s 8s  -  mph 1019.6mb 48f 49f
2:50pm 0.7ft  -  7s  -  2 mph 1019.8mb 48f 49f
2:20pm 0.7ft  -  5s 7 9 mph 1019.9mb 48f 48f
1:50pm 0.3ft  -  4s 4 7 mph 1020.4mb 48f 49f
1:20pm 0.3ft  -  3s 7
mph
1020.5mb 48f 49f
12:50pm 0.3ft  -  4s 11
mph
1020.5mb 48f 49f
12:20pm 0.3ft  -  5s 9 11 mph 1020.7mb 48f 50f
11:50am 0.3ft  -  5s 9
mph
1021mb 48f 49f
11:20am 0.3ft  -  5s 4
mph
1021.2mb 48f 50f
10:50am 0.7ft  -  5s 2 4 mph 1021.2mb 48f 49f
10:20am 0.7ft  -  5s 7 9 mph 1021.1mb 48f 49f
9:50am 0.3ft  -  5s 4 7 mph 1021.1mb 48f 49f
9:20am 0.7ft  -  6s 2
mph
1021.3mb 48f 49f
8:50am 0.3ft  -  5s 2 4 mph 1021.1mb 48f 48f
8:20am 0.3ft  -  5s 4
mph
1021.3mb 48f 49f
7:50am 0.3ft  -  5s 4 7 mph 1021.6mb 48f 49f
7:20am 0.3ft  -  5s 4
mph
1021.9mb 48f 49f
6:50am 0.7ft  -  4s 2 4 mph 1022mb 48f 49f
6:20am 0.7ft  -  4s 2
mph
1022.3mb 48f 49f
5:50am 0.3ft  -  5s  -  2 mph 1022.3mb 48f 49f
5:20am 0.7ft  -  5s 2
mph
1022.1mb 48f 49f
4:50am 0.7ft  -  6s 7 9 mph 1022.2mb 48f 49f
4:20am 0.7ft  -  5s 7 9 mph 1022.1mb 48f 50f
3:50am 0.7ft  -  4s 7 11 mph 1022.5mb 48f 50f
3:20am 1ft 11s 5s 11 13 mph 1022.6mb 48f 50f
2:50am 1ft 12s 6s 7 9 mph 1022.5mb 48f 49f
2:20am 1ft 10s 7s 7 9 mph 1022.5mb 48f 49f
1:50am 0.7ft  -  5s 9
mph
1022.6mb 48f 49f
1:20am 0.3ft  -  5s 7 9 mph 1022.9mb 48f 49f
12:50am 0.3ft  -  5s 7
mph
1022.7mb 48f 50f
12:20am 0.3ft  -  5s 4
mph
1022.6mb 48f 50f
Sat 01/24 11:50pm 0.3ft  -  4s 4 7 mph 1022.9mb 48f 50f
11:20pm 0.3ft  -  4s 4 7 mph 1023mb 48f 50f
10:50pm 0.3ft  -  4s 7
mph
1023.2mb 48f 50f
10:20pm 0.3ft  -  5s 7
mph
1021.8mb 48f 50f
9:50pm 0.3ft  -  6s 7 9 mph 1022.3mb 48f 50f
9:20pm 0.3ft  -  5s 7 9 mph 1022.8mb 48f 50f
8:50pm 0.3ft  -  4s 9
mph
1022.1mb 48f 50f
8:20pm 0.3ft  -  4s 9 11 mph 1021.8mb 48f 50f
7:50pm 0.3ft  -  4s 9 11 mph 1021.9mb 48f 50f
7:20pm 0.7ft  -  5s 7 9 mph 1022.6mb 48f 49f
6:50pm 0.7ft  -  5s 7
mph
1022.2mb 48f 49f
6:20pm 0.7ft  -  6s 9 11 mph 1022.5mb 48f 49f
5:50pm 0.7ft  -  5s 7
mph
1022.5mb 48f 49f
5:20pm 0.7ft  -  5s 4 7 mph 1022.6mb 48f 49f
4:50pm 0.7ft  -  5s 2 4 mph 1022.3mb 48f 49f
4:20pm 1ft 11s 5s  -  2 mph 1022.6mb 48f 49f
3:50pm 1ft 11s 7s 2 4 mph 1022.6mb 48f 50f
3:20pm 1ft 11s 7s 2
mph
1022.8mb 48f 50f
2:50pm 0.7ft  -  6s 4
mph
1023mb 48f 50f
2:20pm 0.7ft  -  5s 7
mph
1023.1mb 48f 50f
1:50pm 0.7ft  -  4s 2 4 mph 1023.7mb 48f 50f
1:20pm 0.3ft  -  4s 7
mph
1023.9mb 48f 50f
12:50pm 0.3ft  -  4s 7 9 mph 1024.1mb 48f 50f
12:20pm 0.3ft  -  4s 7
mph
1024.5mb 48f 49f
11:50am 0.3ft  -  3s 2 4 mph 1024.8mb 48f 49f
11:20am  -   -   -  7
mph
1024.6mb 48f 49f
10:50am 0.3ft  -  4s 7 9 mph 1024.4mb 48f 49f
10:20am 0.3ft  -  4s 4
mph
1024.5mb 48f 49f
9:50am  -   -   -  2
mph
1024.6mb 48f 49f
9:20am 0.3ft  -  3s 4 7 mph 1024.5mb 48f 49f
8:50am 0.3ft  -  3s 4
mph
1024.8mb 48f 49f
8:20am 0.7ft  -  4s 4
mph
1024.5mb 48f 49f
7:50am 0.7ft  -  4s 4 7 mph 1024.2mb 48f 49f
7:20am 0.3ft  -  4s 4
mph
1024.3mb 48f 49f
6:50am 0.7ft  -  3s 7
mph
1024.4mb 48f 49f
6:20am 0.7ft  -  4s 9 11 mph 1024.7mb 48f 49f
5:50am 0.7ft  -  4s 7 9 mph 1025mb 48f 49f
5:20am 0.7ft  -  4s 4 7 mph 1025.2mb 48f 49f
4:50am 1ft 4s 4s 2 4 mph 1025mb 48f 50f
4:20am 1ft 7s 4s 2 4 mph 1025.2mb 48f 50f
3:50am 1ft 7s 4s 2 4 mph 1025.2mb 48f 50f
3:20am 1ft 8s 5s 2 4 mph 1025.4mb 48f 50f
2:50am 0.7ft  -  5s 7
mph
1025.2mb 48f 50f
2:20am 0.7ft  -  5s 4 7 mph 1025.3mb 48f 51f